sensor_id;sensor_type;location;lat;lon;timestamp;P1;durP1;ratioP1;P2;durP2;ratioP2
73170;SDS011;61381;50.118;19.962;2023-05-10T00:02:33;5.90;;;3.63;;
73170;SDS011;61381;50.118;19.962;2023-05-10T00:12:36;6.63;;;4.10;;
73170;SDS011;61381;50.118;19.962;2023-05-10T00:17:37;9.10;;;3.97;;
73170;SDS011;61381;50.118;19.962;2023-05-10T00:27:40;9.65;;;3.80;;
73170;SDS011;61381;50.118;19.962;2023-05-10T00:32:41;5.82;;;3.70;;
73170;SDS011;61381;50.118;19.962;2023-05-10T00:42:44;6.20;;;3.13;;
73170;SDS011;61381;50.118;19.962;2023-05-10T00:47:46;6.55;;;3.58;;
73170;SDS011;61381;50.118;19.962;2023-05-10T00:57:49;7.35;;;4.25;;
73170;SDS011;61381;50.118;19.962;2023-05-10T01:02:50;7.95;;;3.67;;
73170;SDS011;61381;50.118;19.962;2023-05-10T01:07:52;7.85;;;3.38;;
73170;SDS011;61381;50.118;19.962;2023-05-10T01:17:56;6.43;;;3.45;;
73170;SDS011;61381;50.118;19.962;2023-05-10T01:28:23;6.63;;;3.85;;
73170;SDS011;61381;50.118;19.962;2023-05-10T01:33:43;6.85;;;3.40;;
73170;SDS011;61381;50.118;19.962;2023-05-10T01:38:51;7.88;;;4.40;;
73170;SDS011;61381;50.118;19.962;2023-05-10T01:44:00;6.43;;;3.47;;
73170;SDS011;61381;50.118;19.962;2023-05-10T01:49:07;7.10;;;4.07;;
73170;SDS011;61381;50.118;19.962;2023-05-10T01:54:10;6.97;;;3.58;;
73170;SDS011;61381;50.118;19.962;2023-05-10T01:59:15;7.38;;;3.58;;
73170;SDS011;61381;50.118;19.962;2023-05-10T02:04:20;5.10;;;3.90;;
73170;SDS011;61381;50.118;19.962;2023-05-10T02:09:24;5.93;;;3.13;;
73170;SDS011;61381;50.118;19.962;2023-05-10T02:14:29;7.88;;;4.47;;
73170;SDS011;61381;50.118;19.962;2023-05-10T02:19:34;9.45;;;5.78;;
73170;SDS011;61381;50.118;19.962;2023-05-10T02:24:38;5.45;;;3.67;;
73170;SDS011;61381;50.118;19.962;2023-05-10T02:29:40;7.47;;;3.78;;
73170;SDS011;61381;50.118;19.962;2023-05-10T02:34:43;5.53;;;3.60;;
73170;SDS011;61381;50.118;19.962;2023-05-10T02:39:45;9.75;;;3.40;;
73170;SDS011;61381;50.118;19.962;2023-05-10T02:44:47;8.18;;;3.72;;
73170;SDS011;61381;50.118;19.962;2023-05-10T02:49:52;6.20;;;3.28;;
73170;SDS011;61381;50.118;19.962;2023-05-10T02:54:54;8.32;;;3.15;;
73170;SDS011;61381;50.118;19.962;2023-05-10T02:59:59;5.97;;;3.90;;
73170;SDS011;61381;50.118;19.962;2023-05-10T03:05:01;6.13;;;3.78;;
73170;SDS011;61381;50.118;19.962;2023-05-10T03:10:02;9.30;;;4.82;;
73170;SDS011;61381;50.118;19.962;2023-05-10T03:15:06;6.88;;;4.22;;
73170;SDS011;61381;50.118;19.962;2023-05-10T03:20:20;5.78;;;3.60;;
73170;SDS011;61381;50.118;19.962;2023-05-10T03:25:22;5.60;;;3.17;;
73170;SDS011;61381;50.118;19.962;2023-05-10T03:30:24;8.18;;;3.13;;
73170;SDS011;61381;50.118;19.962;2023-05-10T03:35:27;7.93;;;4.00;;
73170;SDS011;61381;50.118;19.962;2023-05-10T03:40:28;5.63;;;3.70;;
73170;SDS011;61381;50.118;19.962;2023-05-10T03:45:29;6.10;;;3.40;;
73170;SDS011;61381;50.118;19.962;2023-05-10T03:50:31;5.47;;;3.65;;
73170;SDS011;61381;50.118;19.962;2023-05-10T03:55:32;7.30;;;3.78;;
73170;SDS011;61381;50.118;19.962;2023-05-10T04:05:35;6.47;;;2.90;;
73170;SDS011;61381;50.118;19.962;2023-05-10T04:10:36;7.15;;;3.35;;
73170;SDS011;61381;50.118;19.962;2023-05-10T04:15:38;6.45;;;3.67;;
73170;SDS011;61381;50.118;19.962;2023-05-10T04:20:40;5.65;;;3.45;;
73170;SDS011;61381;50.118;19.962;2023-05-10T04:25:41;5.07;;;3.05;;
73170;SDS011;61381;50.118;19.962;2023-05-10T04:30:42;6.05;;;2.95;;
73170;SDS011;61381;50.118;19.962;2023-05-10T04:35:44;5.70;;;3.60;;
73170;SDS011;61381;50.118;19.962;2023-05-10T04:40:45;4.57;;;2.97;;
73170;SDS011;61381;50.118;19.962;2023-05-10T04:45:46;7.35;;;3.60;;
73170;SDS011;61381;50.118;19.962;2023-05-10T04:50:49;6.60;;;3.67;;
73170;SDS011;61381;50.118;19.962;2023-05-10T04:55:50;4.75;;;3.30;;
73170;SDS011;61381;50.118;19.962;2023-05-10T05:00:51;6.55;;;3.65;;
73170;SDS011;61381;50.118;19.962;2023-05-10T05:05:53;6.93;;;3.25;;
73170;SDS011;61381;50.118;19.962;2023-05-10T05:10:54;5.25;;;3.22;;
73170;SDS011;61381;50.118;19.962;2023-05-10T05:15:55;6.40;;;3.75;;
73170;SDS011;61381;50.118;19.962;2023-05-10T05:20:57;5.68;;;3.65;;
73170;SDS011;61381;50.118;19.962;2023-05-10T05:25:59;5.32;;;3.33;;
73170;SDS011;61381;50.118;19.962;2023-05-10T05:31:00;6.10;;;4.00;;
73170;SDS011;61381;50.118;19.962;2023-05-10T05:36:02;5.97;;;3.83;;
73170;SDS011;61381;50.118;19.962;2023-05-10T05:41:05;4.75;;;2.97;;
73170;SDS011;61381;50.118;19.962;2023-05-10T05:46:06;5.45;;;3.22;;
73170;SDS011;61381;50.118;19.962;2023-05-10T05:51:08;5.63;;;3.33;;
73170;SDS011;61381;50.118;19.962;2023-05-10T05:56:09;6.32;;;3.47;;
73170;SDS011;61381;50.118;19.962;2023-05-10T06:01:10;6.85;;;3.67;;
73170;SDS011;61381;50.118;19.962;2023-05-10T06:06:12;7.88;;;3.42;;
73170;SDS011;61381;50.118;19.962;2023-05-10T06:11:13;6.75;;;3.80;;
73170;SDS011;61381;50.118;19.962;2023-05-10T06:16:14;8.27;;;3.58;;
73170;SDS011;61381;50.118;19.962;2023-05-10T06:21:16;5.18;;;3.30;;
73170;SDS011;61381;50.118;19.962;2023-05-10T06:26:17;4.07;;;3.22;;
73170;SDS011;61381;50.118;19.962;2023-05-10T06:31:19;5.85;;;3.10;;
73170;SDS011;61381;50.118;19.962;2023-05-10T06:36:21;6.53;;;3.78;;
73170;SDS011;61381;50.118;19.962;2023-05-10T06:41:22;5.20;;;3.38;;
73170;SDS011;61381;50.118;19.962;2023-05-10T06:46:23;6.78;;;3.90;;
73170;SDS011;61381;50.118;19.962;2023-05-10T06:51:25;7.07;;;3.40;;
73170;SDS011;61381;50.118;19.962;2023-05-10T06:56:26;7.70;;;3.70;;
73170;SDS011;61381;50.118;19.962;2023-05-10T07:01:28;6.68;;;4.20;;
73170;SDS011;61381;50.118;19.962;2023-05-10T07:06:30;7.45;;;3.80;;
73170;SDS011;61381;50.118;19.962;2023-05-10T07:11:31;6.47;;;3.38;;
73170;SDS011;61381;50.118;19.962;2023-05-10T07:16:32;7.68;;;3.45;;
73170;SDS011;61381;50.118;19.962;2023-05-10T07:21:35;7.18;;;3.63;;
73170;SDS011;61381;50.118;19.962;2023-05-10T07:26:36;5.72;;;3.78;;
73170;SDS011;61381;50.118;19.962;2023-05-10T07:31:37;5.45;;;3.92;;
73170;SDS011;61381;50.118;19.962;2023-05-10T07:36:40;5.07;;;3.38;;
73170;SDS011;61381;50.118;19.962;2023-05-10T07:41:41;6.22;;;3.35;;
73170;SDS011;61381;50.118;19.962;2023-05-10T07:46:42;6.95;;;3.80;;
73170;SDS011;61381;50.118;19.962;2023-05-10T07:51:44;8.40;;;4.07;;
73170;SDS011;61381;50.118;19.962;2023-05-10T07:56:45;5.18;;;3.15;;
73170;SDS011;61381;50.118;19.962;2023-05-10T08:01:46;6.35;;;3.08;;
73170;SDS011;61381;50.118;19.962;2023-05-10T08:06:49;5.07;;;3.08;;
73170;SDS011;61381;50.118;19.962;2023-05-10T08:11:50;5.18;;;2.83;;
73170;SDS011;61381;50.118;19.962;2023-05-10T08:16:51;10.10;;;2.70;;
73170;SDS011;61381;50.118;19.962;2023-05-10T08:21:53;4.75;;;2.97;;
73170;SDS011;61381;50.118;19.962;2023-05-10T08:26:54;4.05;;;2.70;;
73170;SDS011;61381;50.118;19.962;2023-05-10T08:31:55;5.85;;;2.67;;
73170;SDS011;61381;50.118;19.962;2023-05-10T08:36:58;5.03;;;2.65;;
73170;SDS011;61381;50.118;19.962;2023-05-10T08:41:59;4.35;;;2.30;;
73170;SDS011;61381;50.118;19.962;2023-05-10T08:47:02;3.95;;;2.50;;
73170;SDS011;61381;50.118;19.962;2023-05-10T08:52:07;3.38;;;2.45;;
73170;SDS011;61381;50.118;19.962;2023-05-10T08:57:08;4.63;;;2.40;;
73170;SDS011;61381;50.118;19.962;2023-05-10T09:02:10;3.75;;;2.30;;
73170;SDS011;61381;50.118;19.962;2023-05-10T09:07:15;3.55;;;2.10;;
73170;SDS011;61381;50.118;19.962;2023-05-10T09:12:16;3.83;;;2.20;;
73170;SDS011;61381;50.118;19.962;2023-05-10T09:17:17;2.90;;;1.90;;
73170;SDS011;61381;50.118;19.962;2023-05-10T09:22:20;3.50;;;1.73;;
73170;SDS011;61381;50.118;19.962;2023-05-10T09:27:26;3.90;;;2.00;;
73170;SDS011;61381;50.118;19.962;2023-05-10T09:32:37;5.07;;;1.77;;
73170;SDS011;61381;50.118;19.962;2023-05-10T09:37:40;3.17;;;1.70;;
73170;SDS011;61381;50.118;19.962;2023-05-10T09:42:50;4.47;;;1.92;;
73170;SDS011;61381;50.118;19.962;2023-05-10T09:47:52;3.05;;;1.75;;
73170;SDS011;61381;50.118;19.962;2023-05-10T09:52:56;2.90;;;2.03;;
73170;SDS011;61381;50.118;19.962;2023-05-10T09:57:59;3.47;;;2.05;;
73170;SDS011;61381;50.118;19.962;2023-05-10T10:03:01;3.22;;;1.90;;
73170;SDS011;61381;50.118;19.962;2023-05-10T10:08:04;2.63;;;1.67;;
73170;SDS011;61381;50.118;19.962;2023-05-10T10:13:06;7.75;;;1.90;;
73170;SDS011;61381;50.118;19.962;2023-05-10T10:18:07;3.25;;;2.40;;
73170;SDS011;61381;50.118;19.962;2023-05-10T10:23:14;2.65;;;1.80;;
73170;SDS011;61381;50.118;19.962;2023-05-10T10:28:17;5.75;;;1.90;;
73170;SDS011;61381;50.118;19.962;2023-05-10T10:33:36;4.10;;;2.00;;
73170;SDS011;61381;50.118;19.962;2023-05-10T10:38:55;3.60;;;2.00;;
73170;SDS011;61381;50.118;19.962;2023-05-10T10:49:24;3.25;;;1.88;;
73170;SDS011;61381;50.118;19.962;2023-05-10T10:54:28;2.70;;;1.80;;
73170;SDS011;61381;50.118;19.962;2023-05-10T10:59:29;3.47;;;1.90;;
73170;SDS011;61381;50.118;19.962;2023-05-10T11:04:31;4.80;;;1.90;;
73170;SDS011;61381;50.118;19.962;2023-05-10T11:09:43;4.10;;;1.83;;
73170;SDS011;61381;50.118;19.962;2023-05-10T11:14:48;3.83;;;1.60;;
73170;SDS011;61381;50.118;19.962;2023-05-10T11:20:06;2.22;;;1.75;;
73170;SDS011;61381;50.118;19.962;2023-05-10T11:25:08;2.45;;;1.60;;
73170;SDS011;61381;50.118;19.962;2023-05-10T11:30:10;2.90;;;1.65;;
73170;SDS011;61381;50.118;19.962;2023-05-10T11:35:12;3.42;;;1.60;;
73170;SDS011;61381;50.118;19.962;2023-05-10T11:40:15;3.72;;;2.25;;
73170;SDS011;61381;50.118;19.962;2023-05-10T11:45:16;2.80;;;1.60;;
73170;SDS011;61381;50.118;19.962;2023-05-10T11:50:18;2.63;;;1.63;;
73170;SDS011;61381;50.118;19.962;2023-05-10T11:55:20;4.38;;;1.90;;
73170;SDS011;61381;50.118;19.962;2023-05-10T12:00:21;5.75;;;1.60;;
73170;SDS011;61381;50.118;19.962;2023-05-10T12:05:22;3.95;;;1.88;;
73170;SDS011;61381;50.118;19.962;2023-05-10T12:10:26;3.42;;;2.42;;
73170;SDS011;61381;50.118;19.962;2023-05-10T12:15:27;2.67;;;1.88;;
73170;SDS011;61381;50.118;19.962;2023-05-10T12:20:28;5.03;;;1.95;;
73170;SDS011;61381;50.118;19.962;2023-05-10T12:25:31;5.50;;;1.67;;
73170;SDS011;61381;50.118;19.962;2023-05-10T12:30:34;2.83;;;1.90;;
73170;SDS011;61381;50.118;19.962;2023-05-10T12:35:43;2.22;;;1.80;;
73170;SDS011;61381;50.118;19.962;2023-05-10T12:40:46;2.72;;;1.70;;
73170;SDS011;61381;50.118;19.962;2023-05-10T12:45:48;1.67;;;1.17;;
73170;SDS011;61381;50.118;19.962;2023-05-10T12:50:49;2.38;;;1.50;;
73170;SDS011;61381;50.118;19.962;2023-05-10T12:55:52;3.28;;;1.67;;
73170;SDS011;61381;50.118;19.962;2023-05-10T13:00:53;2.65;;;1.60;;
73170;SDS011;61381;50.118;19.962;2023-05-10T13:05:54;4.72;;;2.15;;
73170;SDS011;61381;50.118;19.962;2023-05-10T13:10:56;3.92;;;1.60;;
73170;SDS011;61381;50.118;19.962;2023-05-10T13:15:57;3.35;;;1.60;;
73170;SDS011;61381;50.118;19.962;2023-05-10T13:20:58;2.83;;;1.90;;
73170;SDS011;61381;50.118;19.962;2023-05-10T13:26:01;4.50;;;2.15;;
73170;SDS011;61381;50.118;19.962;2023-05-10T13:31:02;3.13;;;1.80;;
73170;SDS011;61381;50.118;19.962;2023-05-10T13:36:03;4.60;;;1.98;;
73170;SDS011;61381;50.118;19.962;2023-05-10T13:41:06;3.83;;;1.83;;
73170;SDS011;61381;50.118;19.962;2023-05-10T13:46:07;2.42;;;1.75;;
73170;SDS011;61381;50.118;19.962;2023-05-10T13:51:08;4.00;;;1.50;;
73170;SDS011;61381;50.118;19.962;2023-05-10T13:56:11;2.65;;;1.55;;
73170;SDS011;61381;50.118;19.962;2023-05-10T14:01:12;2.00;;;1.60;;
73170;SDS011;61381;50.118;19.962;2023-05-10T14:06:13;2.10;;;1.70;;
73170;SDS011;61381;50.118;19.962;2023-05-10T14:11:15;2.33;;;1.63;;
73170;SDS011;61381;50.118;19.962;2023-05-10T14:16:16;2.63;;;1.70;;
73170;SDS011;61381;50.118;19.962;2023-05-10T14:21:18;2.45;;;1.52;;
73170;SDS011;61381;50.118;19.962;2023-05-10T14:26:21;4.15;;;1.65;;
73170;SDS011;61381;50.118;19.962;2023-05-10T14:31:22;3.63;;;1.77;;
73170;SDS011;61381;50.118;19.962;2023-05-10T14:36:23;4.30;;;1.60;;
73170;SDS011;61381;50.118;19.962;2023-05-10T14:41:26;1.75;;;1.63;;
73170;SDS011;61381;50.118;19.962;2023-05-10T14:46:27;1.77;;;1.33;;
73170;SDS011;61381;50.118;19.962;2023-05-10T14:51:28;3.78;;;1.70;;
73170;SDS011;61381;50.118;19.962;2023-05-10T14:56:30;2.00;;;1.60;;
73170;SDS011;61381;50.118;19.962;2023-05-10T15:01:31;5.75;;;2.58;;
73170;SDS011;61381;50.118;19.962;2023-05-10T15:06:33;3.72;;;1.67;;
73170;SDS011;61381;50.118;19.962;2023-05-10T15:11:36;2.97;;;1.80;;
73170;SDS011;61381;50.118;19.962;2023-05-10T15:16:37;3.13;;;1.90;;
73170;SDS011;61381;50.118;19.962;2023-05-10T15:21:38;3.47;;;1.60;;
73170;SDS011;61381;50.118;19.962;2023-05-10T15:26:41;2.83;;;1.70;;
73170;SDS011;61381;50.118;19.962;2023-05-10T15:31:42;4.05;;;1.73;;
73170;SDS011;61381;50.118;19.962;2023-05-10T15:36:43;3.25;;;1.60;;
73170;SDS011;61381;50.118;19.962;2023-05-10T15:41:45;2.05;;;1.40;;
73170;SDS011;61381;50.118;19.962;2023-05-10T15:46:46;3.97;;;1.73;;
73170;SDS011;61381;50.118;19.962;2023-05-10T15:51:47;4.45;;;2.20;;
73170;SDS011;61381;50.118;19.962;2023-05-10T15:56:50;4.82;;;1.85;;
73170;SDS011;61381;50.118;19.962;2023-05-10T16:01:51;2.35;;;1.30;;
73170;SDS011;61381;50.118;19.962;2023-05-10T16:06:52;2.75;;;1.70;;
73170;SDS011;61381;50.118;19.962;2023-05-10T16:11:54;3.88;;;1.90;;
73170;SDS011;61381;50.118;19.962;2023-05-10T16:16:55;2.92;;;1.75;;
73170;SDS011;61381;50.118;19.962;2023-05-10T16:21:57;7.07;;;1.83;;
73170;SDS011;61381;50.118;19.962;2023-05-10T16:26:59;3.55;;;1.70;;
73170;SDS011;61381;50.118;19.962;2023-05-10T16:32:00;2.22;;;1.52;;
73170;SDS011;61381;50.118;19.962;2023-05-10T16:37:02;3.08;;;1.90;;
73170;SDS011;61381;50.118;19.962;2023-05-10T16:42:05;3.13;;;1.90;;
73170;SDS011;61381;50.118;19.962;2023-05-10T16:47:06;3.83;;;1.50;;
73170;SDS011;61381;50.118;19.962;2023-05-10T16:52:07;3.50;;;1.88;;
73170;SDS011;61381;50.118;19.962;2023-05-10T16:57:10;3.00;;;1.70;;
73170;SDS011;61381;50.118;19.962;2023-05-10T17:02:11;4.30;;;1.98;;
73170;SDS011;61381;50.118;19.962;2023-05-10T17:07:12;5.72;;;2.05;;
73170;SDS011;61381;50.118;19.962;2023-05-10T17:12:15;2.97;;;1.70;;
73170;SDS011;61381;50.118;19.962;2023-05-10T17:17:16;5.95;;;2.47;;
73170;SDS011;61381;50.118;19.962;2023-05-10T17:22:17;4.28;;;2.03;;
73170;SDS011;61381;50.118;19.962;2023-05-10T17:27:20;3.75;;;2.00;;
73170;SDS011;61381;50.118;19.962;2023-05-10T17:32:21;3.55;;;1.60;;
73170;SDS011;61381;50.118;19.962;2023-05-10T17:37:22;3.90;;;2.10;;
73170;SDS011;61381;50.118;19.962;2023-05-10T17:42:24;2.80;;;2.20;;
73170;SDS011;61381;50.118;19.962;2023-05-10T17:47:25;7.05;;;1.98;;
73170;SDS011;61381;50.118;19.962;2023-05-10T17:52:26;3.53;;;2.00;;
73170;SDS011;61381;50.118;19.962;2023-05-10T17:57:29;4.47;;;2.70;;
73170;SDS011;61381;50.118;19.962;2023-05-10T18:02:30;3.35;;;2.03;;
73170;SDS011;61381;50.118;19.962;2023-05-10T18:07:31;4.63;;;2.30;;
73170;SDS011;61381;50.118;19.962;2023-05-10T18:12:33;5.57;;;2.63;;
73170;SDS011;61381;50.118;19.962;2023-05-10T18:17:34;3.90;;;2.58;;
73170;SDS011;61381;50.118;19.962;2023-05-10T18:22:35;3.92;;;2.63;;
73170;SDS011;61381;50.118;19.962;2023-05-10T18:27:38;4.72;;;2.22;;
73170;SDS011;61381;50.118;19.962;2023-05-10T18:32:39;4.97;;;2.47;;
73170;SDS011;61381;50.118;19.962;2023-05-10T18:37:40;4.53;;;2.10;;
73170;SDS011;61381;50.118;19.962;2023-05-10T18:42:43;5.88;;;2.03;;
73170;SDS011;61381;50.118;19.962;2023-05-10T18:47:44;3.30;;;2.20;;
73170;SDS011;61381;50.118;19.962;2023-05-10T18:52:45;5.15;;;2.55;;
73170;SDS011;61381;50.118;19.962;2023-05-10T18:57:47;7.13;;;2.58;;
73170;SDS011;61381;50.118;19.962;2023-05-10T19:02:48;4.00;;;2.17;;
73170;SDS011;61381;50.118;19.962;2023-05-10T19:07:49;6.10;;;2.30;;
73170;SDS011;61381;50.118;19.962;2023-05-10T19:12:52;3.72;;;2.10;;
73170;SDS011;61381;50.118;19.962;2023-05-10T19:17:53;4.50;;;2.80;;
73170;SDS011;61381;50.118;19.962;2023-05-10T19:22:54;5.03;;;2.63;;
73170;SDS011;61381;50.118;19.962;2023-05-10T19:27:56;5.78;;;2.55;;
73170;SDS011;61381;50.118;19.962;2023-05-10T19:32:57;5.22;;;2.47;;
73170;SDS011;61381;50.118;19.962;2023-05-10T19:37:59;7.65;;;3.10;;
73170;SDS011;61381;50.118;19.962;2023-05-10T19:43:02;7.15;;;2.45;;
73170;SDS011;61381;50.118;19.962;2023-05-10T19:48:03;5.47;;;3.20;;
73170;SDS011;61381;50.118;19.962;2023-05-10T19:53:05;9.30;;;2.78;;
73170;SDS011;61381;50.118;19.962;2023-05-10T19:58:07;5.35;;;2.58;;
73170;SDS011;61381;50.118;19.962;2023-05-10T20:03:08;4.38;;;2.30;;
73170;SDS011;61381;50.118;19.962;2023-05-10T20:08:09;9.23;;;3.05;;
73170;SDS011;61381;50.118;19.962;2023-05-10T20:13:12;7.72;;;2.85;;
73170;SDS011;61381;50.118;19.962;2023-05-10T20:18:13;6.20;;;2.17;;
73170;SDS011;61381;50.118;19.962;2023-05-10T20:23:14;6.55;;;2.38;;
73170;SDS011;61381;50.118;19.962;2023-05-10T20:28:20;5.32;;;3.00;;
73170;SDS011;61381;50.118;19.962;2023-05-10T20:33:21;4.35;;;2.53;;
73170;SDS011;61381;50.118;19.962;2023-05-10T20:38:22;9.27;;;3.00;;
73170;SDS011;61381;50.118;19.962;2023-05-10T20:43:25;5.82;;;2.50;;
73170;SDS011;61381;50.118;19.962;2023-05-10T20:48:26;4.75;;;2.88;;
73170;SDS011;61381;50.118;19.962;2023-05-10T20:53:27;7.70;;;3.33;;
73170;SDS011;61381;50.118;19.962;2023-05-10T20:58:29;7.38;;;3.10;;
73170;SDS011;61381;50.118;19.962;2023-05-10T21:03:30;4.60;;;2.63;;
73170;SDS011;61381;50.118;19.962;2023-05-10T21:08:31;5.53;;;3.10;;
73170;SDS011;61381;50.118;19.962;2023-05-10T21:13:34;8.82;;;3.53;;
73170;SDS011;61381;50.118;19.962;2023-05-10T21:18:35;14.30;;;5.60;;
73170;SDS011;61381;50.118;19.962;2023-05-10T21:23:36;6.15;;;3.50;;
73170;SDS011;61381;50.118;19.962;2023-05-10T21:28:38;7.43;;;3.28;;
73170;SDS011;61381;50.118;19.962;2023-05-10T21:33:39;8.48;;;3.47;;
73170;SDS011;61381;50.118;19.962;2023-05-10T21:38:40;5.53;;;2.83;;
73170;SDS011;61381;50.118;19.962;2023-05-10T21:43:43;9.55;;;3.90;;
73170;SDS011;61381;50.118;19.962;2023-05-10T21:48:44;6.00;;;2.50;;
73170;SDS011;61381;50.118;19.962;2023-05-10T21:53:45;6.72;;;3.08;;
73170;SDS011;61381;50.118;19.962;2023-05-10T21:58:48;6.10;;;3.30;;
73170;SDS011;61381;50.118;19.962;2023-05-10T22:03:49;5.03;;;3.08;;
73170;SDS011;61381;50.118;19.962;2023-05-10T22:08:50;5.65;;;3.33;;
73170;SDS011;61381;50.118;19.962;2023-05-10T22:13:53;5.68;;;2.65;;
73170;SDS011;61381;50.118;19.962;2023-05-10T22:18:53;7.05;;;3.63;;
73170;SDS011;61381;50.118;19.962;2023-05-10T22:23:54;6.25;;;2.63;;
73170;SDS011;61381;50.118;19.962;2023-05-10T22:28:57;6.05;;;3.15;;
73170;SDS011;61381;50.118;19.962;2023-05-10T22:33:58;5.97;;;3.17;;
73170;SDS011;61381;50.118;19.962;2023-05-10T22:38:59;6.45;;;3.53;;
73170;SDS011;61381;50.118;19.962;2023-05-10T22:44:01;5.78;;;3.55;;
73170;SDS011;61381;50.118;19.962;2023-05-10T22:49:02;6.45;;;3.38;;
73170;SDS011;61381;50.118;19.962;2023-05-10T22:54:03;7.00;;;3.42;;
73170;SDS011;61381;50.118;19.962;2023-05-10T22:59:06;6.80;;;3.42;;
73170;SDS011;61381;50.118;19.962;2023-05-10T23:04:07;6.18;;;3.40;;
73170;SDS011;61381;50.118;19.962;2023-05-10T23:09:08;4.53;;;2.70;;
73170;SDS011;61381;50.118;19.962;2023-05-10T23:14:10;5.90;;;3.13;;
73170;SDS011;61381;50.118;19.962;2023-05-10T23:19:11;5.93;;;2.97;;
73170;SDS011;61381;50.118;19.962;2023-05-10T23:24:12;5.80;;;2.92;;
73170;SDS011;61381;50.118;19.962;2023-05-10T23:29:15;5.55;;;3.25;;
73170;SDS011;61381;50.118;19.962;2023-05-10T23:34:16;8.25;;;2.92;;
73170;SDS011;61381;50.118;19.962;2023-05-10T23:39:16;5.15;;;3.28;;
73170;SDS011;61381;50.118;19.962;2023-05-10T23:44:19;6.40;;;2.83;;
73170;SDS011;61381;50.118;19.962;2023-05-10T23:49:20;4.40;;;2.72;;
73170;SDS011;61381;50.118;19.962;2023-05-10T23:54:21;6.10;;;3.58;;
73170;SDS011;61381;50.118;19.962;2023-05-10T23:59:23;4.10;;;3.00;;
